createdAt,value
2023-05-23T00:03:23.009Z,5.32
2023-05-23T00:07:25.027Z,4.30
2023-05-23T00:11:31.168Z,4.72
2023-05-23T00:15:33.910Z,4.50
2023-05-23T00:19:36.492Z,4.28
2023-05-23T00:23:38.514Z,3.78
2023-05-23T00:27:40.368Z,3.85
2023-05-23T00:31:46.818Z,3.60
2023-05-23T00:39:52.545Z,3.08
2023-05-23T00:43:54.273Z,3.50
2023-05-23T00:47:56.633Z,4.00
2023-05-23T00:51:58.578Z,4.40
2023-05-23T00:56:00.641Z,6.15
2023-05-23T01:00:02.700Z,3.90
2023-05-23T01:04:04.916Z,4.10
2023-05-23T01:08:08.121Z,3.40
2023-05-23T01:12:28.563Z,2.90
2023-05-23T01:16:39.293Z,3.05
2023-05-23T01:20:49.413Z,2.85
2023-05-23T01:25:10.627Z,3.22
2023-05-23T01:29:20.115Z,2.80
2023-05-23T01:33:22.842Z,2.90
2023-05-23T01:37:24.612Z,2.95
2023-05-23T01:41:26.763Z,2.88
2023-05-23T01:45:29.711Z,2.78
2023-05-23T01:49:32.453Z,2.95
2023-05-23T01:53:35.470Z,3.22
2023-05-23T01:57:39.055Z,2.88
2023-05-23T02:01:41.702Z,2.90
2023-05-23T02:05:43.950Z,3.33
2023-05-23T02:09:46.016Z,3.53
2023-05-23T02:13:48.268Z,3.38
2023-05-23T02:17:50.048Z,3.42
2023-05-23T02:21:51.835Z,2.60
2023-05-23T02:25:53.632Z,2.97
2023-05-23T02:29:55.556Z,3.05
2023-05-23T02:33:58.044Z,3.15
2023-05-23T02:38:00.586Z,3.67
2023-05-23T02:42:02.916Z,3.03
2023-05-23T02:46:05.038Z,2.97
2023-05-23T02:50:08.284Z,3.03
2023-05-23T02:54:10.090Z,3.33
2023-05-23T02:58:13.005Z,5.50
2023-05-23T03:02:15.098Z,6.03
2023-05-23T03:06:17.101Z,5.40
2023-05-23T03:10:19.297Z,5.65
2023-05-23T03:14:21.001Z,5.75
2023-05-23T03:18:24.509Z,5.13
2023-05-23T03:22:26.552Z,5.03
2023-05-23T03:26:28.634Z,5.40
2023-05-23T03:30:31.754Z,4.85
2023-05-23T03:34:36.744Z,5.22
2023-05-23T03:38:38.662Z,5.60
2023-05-23T03:42:40.853Z,5.50
2023-05-23T03:46:44.704Z,5.43
2023-05-23T03:50:46.823Z,6.18
2023-05-23T03:54:49.321Z,5.75
2023-05-23T03:58:51.536Z,6.15
2023-05-23T04:02:54.108Z,6.35
2023-05-23T04:06:59.400Z,6.15
2023-05-23T04:11:02.066Z,6.00
2023-05-23T04:15:08.916Z,5.30
2023-05-23T04:19:16.412Z,5.95
2023-05-23T04:23:18.548Z,5.78
2023-05-23T04:27:26.202Z,5.93
2023-05-23T04:31:28.954Z,5.80
2023-05-23T04:35:34.390Z,6.10
2023-05-23T04:39:37.228Z,6.15
2023-05-23T04:44:12.380Z,5.82
2023-05-23T04:48:23.477Z,6.55
2023-05-23T04:52:27.618Z,5.88
2023-05-23T04:56:30.208Z,5.43
2023-05-23T05:00:33.303Z,5.97
2023-05-23T05:04:38.054Z,6.07
2023-05-23T05:08:40.941Z,6.15
2023-05-23T05:12:49.542Z,7.07
2023-05-23T05:16:52.203Z,8.55
2023-05-23T05:20:56.009Z,7.15
2023-05-23T05:24:58.810Z,7.03
2023-05-23T05:29:00.630Z,8.07
2023-05-23T05:33:04.246Z,7.40
2023-05-23T05:37:06.470Z,7.07
2023-05-23T05:41:09.444Z,6.85
2023-05-23T05:45:15.396Z,6.85
2023-05-23T05:49:18.705Z,7.18
2023-05-23T05:53:21.303Z,6.85
2023-05-23T05:57:23.457Z,7.28
2023-05-23T06:01:25.476Z,6.57
2023-05-23T06:05:27.267Z,7.40
2023-05-23T06:09:29.290Z,8.63
2023-05-23T06:13:31.050Z,7.35
2023-05-23T06:17:32.961Z,8.18
2023-05-23T06:21:34.806Z,7.20
2023-05-23T06:25:38.870Z,7.97
2023-05-23T06:29:41.406Z,6.63
2023-05-23T06:33:43.225Z,7.10
2023-05-23T06:37:46.121Z,8.05
2023-05-23T06:41:48.120Z,8.15
2023-05-23T06:45:50.260Z,8.40
2023-05-23T06:49:52.128Z,10.82
2023-05-23T06:53:53.915Z,8.70
2023-05-23T06:57:56.068Z,9.30
2023-05-23T07:01:58.597Z,9.80
2023-05-23T07:06:00.653Z,7.57
2023-05-23T07:10:03.388Z,8.27
2023-05-23T07:14:06.128Z,7.68
2023-05-23T07:18:14.550Z,7.22
2023-05-23T07:22:16.692Z,7.72
2023-05-23T07:26:18.969Z,8.95
2023-05-23T07:30:27.522Z,8.73
2023-05-23T07:34:30.644Z,8.23
2023-05-23T07:38:35.586Z,8.68
2023-05-23T07:42:37.710Z,9.40
2023-05-23T07:46:39.497Z,9.73
2023-05-23T07:50:41.622Z,8.48
2023-05-23T07:54:43.974Z,9.27
2023-05-23T07:58:46.852Z,9.20
2023-05-23T08:02:50.164Z,9.65
2023-05-23T08:07:05.134Z,9.82
2023-05-23T08:11:30.327Z,9.18
2023-05-23T08:15:33.297Z,7.03
2023-05-23T08:19:44.005Z,9.43
2023-05-23T08:23:45.758Z,6.93
2023-05-23T08:27:47.581Z,10.18
2023-05-23T08:32:11.995Z,9.07
2023-05-23T08:36:14.220Z,9.30
2023-05-23T08:40:22.992Z,7.10
2023-05-23T08:44:38.076Z,8.18
2023-05-23T08:48:40.473Z,8.02
2023-05-23T08:52:57.739Z,9.95
2023-05-23T08:57:00.727Z,7.60
2023-05-23T09:01:03.580Z,8.82
2023-05-23T09:05:05.996Z,8.20
2023-05-23T09:09:08.713Z,10.35
2023-05-23T09:13:10.650Z,8.32
2023-05-23T09:17:20.725Z,7.22
2023-05-23T09:21:24.590Z,6.38
2023-05-23T09:25:47.831Z,7.57
2023-05-23T09:29:50.788Z,9.40
2023-05-23T09:33:54.087Z,9.57
2023-05-23T09:37:59.275Z,8.70
2023-05-23T09:42:01.218Z,7.53
2023-05-23T09:46:12.938Z,8.98
2023-05-23T09:50:14.734Z,7.60
2023-05-23T09:54:16.557Z,6.53
2023-05-23T09:58:21.145Z,7.57
2023-05-23T10:02:41.659Z,6.88
2023-05-23T10:06:52.090Z,6.60
2023-05-23T10:10:57.034Z,6.63
2023-05-23T10:15:04.800Z,6.80
2023-05-23T10:19:12.546Z,6.40
2023-05-23T10:23:15.668Z,5.63
2023-05-23T10:27:19.668Z,6.85
2023-05-23T10:31:22.736Z,6.28
2023-05-23T10:35:33.464Z,6.55
2023-05-23T10:39:57.534Z,6.15
2023-05-23T10:44:17.005Z,6.05
2023-05-23T10:48:32.704Z,6.60
2023-05-23T10:52:41.900Z,6.20
2023-05-23T10:56:44.080Z,5.25
2023-05-23T11:00:57.409Z,5.55
2023-05-23T11:05:19.599Z,4.70
2023-05-23T11:09:22.374Z,5.50
2023-05-23T11:13:24.403Z,4.68
2023-05-23T11:17:33.726Z,4.20
2023-05-23T11:21:37.130Z,4.32
2023-05-23T11:25:49.075Z,4.28
2023-05-23T11:30:13.336Z,4.80
2023-05-23T11:34:15.691Z,4.70
2023-05-23T11:38:17.651Z,4.32
2023-05-23T11:42:19.438Z,3.60
2023-05-23T11:46:21.522Z,4.38
2023-05-23T11:50:24.560Z,4.55
2023-05-23T11:54:27.390Z,3.45
2023-05-23T11:58:31.902Z,4.40
2023-05-23T12:02:39.115Z,3.70
2023-05-23T12:06:41.849Z,4.10
2023-05-23T12:10:54.446Z,4.68
2023-05-23T12:14:57.558Z,4.10
2023-05-23T12:19:01.217Z,4.50
2023-05-23T12:23:06.456Z,4.22
2023-05-23T12:27:10.323Z,4.82
2023-05-23T12:31:14.015Z,5.00
2023-05-23T12:35:18.600Z,4.63
2023-05-23T12:39:25.456Z,4.60
2023-05-23T12:43:27.361Z,4.82
2023-05-23T12:47:29.179Z,4.65
2023-05-23T12:51:31.968Z,4.30
2023-05-23T12:55:33.702Z,4.90
2023-05-23T12:59:35.435Z,4.65
2023-05-23T13:03:37.213Z,4.43
2023-05-23T13:07:38.947Z,3.97
2023-05-23T13:11:41.483Z,4.43
2023-05-23T13:15:43.777Z,4.22
2023-05-23T13:19:45.858Z,4.40
2023-05-23T13:23:47.610Z,4.32
2023-05-23T13:27:49.465Z,4.55
2023-05-23T13:31:51.418Z,3.90
2023-05-23T13:35:54.270Z,4.35
2023-05-23T13:39:56.052Z,4.22
2023-05-23T13:43:57.859Z,4.47
2023-05-23T13:48:00.843Z,4.00
2023-05-23T13:52:02.688Z,4.90
2023-05-23T13:56:04.557Z,4.45
2023-05-23T14:00:08.998Z,4.10
2023-05-23T14:04:10.810Z,3.90
2023-05-23T14:08:14.084Z,4.00
2023-05-23T14:12:15.934Z,3.92
2023-05-23T14:16:17.817Z,4.28
2023-05-23T14:20:19.644Z,3.90
2023-05-23T14:24:22.505Z,4.00
2023-05-23T14:28:24.358Z,3.80
2023-05-23T14:32:26.284Z,3.75
2023-05-23T14:36:28.562Z,3.72
2023-05-23T14:40:30.301Z,3.63
2023-05-23T14:44:32.139Z,3.70
2023-05-23T14:48:33.911Z,4.25
2023-05-23T14:52:35.726Z,4.35
2023-05-23T14:56:41.518Z,4.10
2023-05-23T15:00:46.863Z,4.25
2023-05-23T15:04:48.714Z,3.90
2023-05-23T15:08:50.478Z,3.92
2023-05-23T15:12:52.323Z,4.22
2023-05-23T15:16:54.124Z,3.38
2023-05-23T15:20:56.200Z,4.50
2023-05-23T15:25:00.513Z,3.70
2023-05-23T15:29:02.298Z,3.83
2023-05-23T15:33:04.269Z,3.45
2023-05-23T15:37:06.106Z,4.20
2023-05-23T15:41:07.874Z,4.35
2023-05-23T15:45:10.207Z,4.85
2023-05-23T15:49:24.579Z,4.40
2023-05-23T15:53:27.387Z,4.40
2023-05-23T15:57:29.149Z,3.97
2023-05-23T16:01:31.051Z,4.90
2023-05-23T16:05:32.898Z,4.03
2023-05-23T16:09:34.650Z,4.20
2023-05-23T16:13:36.523Z,4.00
2023-05-23T16:17:38.276Z,4.75
2023-05-23T16:21:40.132Z,4.20
2023-05-23T16:25:43.088Z,4.40
2023-05-23T16:29:44.997Z,3.75
2023-05-23T16:33:46.750Z,3.45
2023-05-23T16:37:48.521Z,4.07
2023-05-23T16:41:50.499Z,3.80
2023-05-23T16:45:52.238Z,3.72
2023-05-23T16:49:54.003Z,3.25
2023-05-23T16:53:55.816Z,3.50
2023-05-23T16:57:57.734Z,3.33
2023-05-23T17:01:59.549Z,2.78
2023-05-23T17:06:01.488Z,3.22
2023-05-23T17:10:03.503Z,3.15
2023-05-23T17:14:05.312Z,2.80
2023-05-23T17:18:07.495Z,3.42
2023-05-23T17:22:09.329Z,2.83
2023-05-23T17:26:11.123Z,2.92
2023-05-23T17:30:18.561Z,2.35
2023-05-23T17:34:20.711Z,2.60
2023-05-23T17:38:22.556Z,2.50
2023-05-23T17:42:24.854Z,2.10
2023-05-23T17:46:27.354Z,2.05
2023-05-23T17:50:29.868Z,1.75
2023-05-23T17:54:31.682Z,1.95
2023-05-23T17:58:33.402Z,1.77
2023-05-23T18:02:35.207Z,1.60
2023-05-23T18:06:37.385Z,1.40
2023-05-23T18:10:39.464Z,1.40
2023-05-23T18:14:42.222Z,1.38
2023-05-23T18:18:44.049Z,1.60
2023-05-23T18:22:45.833Z,1.50
2023-05-23T18:26:47.572Z,1.40
2023-05-23T18:30:49.507Z,1.38
2023-05-23T18:34:51.274Z,1.40
2023-05-23T18:38:53.099Z,1.40
2023-05-23T18:42:54.920Z,1.40
2023-05-23T18:46:56.889Z,1.40
2023-05-23T18:50:58.878Z,1.50
2023-05-23T18:55:00.803Z,1.38
2023-05-23T18:59:02.556Z,1.60
2023-05-23T19:03:04.493Z,1.67
2023-05-23T19:07:07.443Z,1.38
2023-05-23T19:11:10.721Z,1.40
2023-05-23T19:15:12.483Z,1.30
2023-05-23T19:19:14.674Z,1.50
2023-05-23T19:23:17.099Z,1.33
2023-05-23T19:27:18.857Z,1.65
2023-05-23T19:31:20.689Z,1.60
2023-05-23T19:35:22.580Z,1.50
2023-05-23T19:39:24.369Z,1.60
2023-05-23T19:43:26.792Z,1.60
2023-05-23T19:47:30.807Z,1.70
2023-05-23T19:51:32.816Z,1.55
2023-05-23T19:55:35.389Z,1.30
2023-05-23T19:59:37.166Z,1.70
2023-05-23T20:03:38.963Z,1.50
2023-05-23T20:07:41.129Z,1.60
2023-05-23T20:11:43.214Z,1.70
2023-05-23T20:15:45.029Z,1.70
2023-05-23T20:19:46.996Z,1.60
2023-05-23T20:23:49.259Z,1.65
2023-05-23T20:27:51.211Z,1.88
2023-05-23T20:31:53.081Z,1.65
2023-05-23T20:35:54.893Z,1.80
2023-05-23T20:39:56.621Z,1.88
2023-05-23T20:44:00.288Z,1.60
2023-05-23T20:48:02.118Z,1.85
2023-05-23T20:52:05.539Z,1.40
2023-05-23T20:56:10.408Z,1.67
2023-05-23T21:00:13.386Z,1.77
2023-05-23T21:04:16.714Z,2.05
2023-05-23T21:08:21.132Z,2.03
2023-05-23T21:12:22.929Z,2.20
2023-05-23T21:16:24.749Z,2.30
2023-05-23T21:20:27.034Z,2.08
2023-05-23T21:24:29.770Z,1.90
2023-05-23T21:28:32.118Z,1.95
2023-05-23T21:32:34.587Z,2.10
2023-05-23T21:36:36.976Z,2.25
2023-05-23T21:40:38.761Z,2.40
2023-05-23T21:44:40.970Z,2.45
2023-05-23T21:48:42.831Z,1.98
2023-05-23T21:52:44.619Z,2.05
2023-05-23T21:56:46.377Z,1.77
2023-05-23T22:00:48.178Z,2.00
2023-05-23T22:04:49.947Z,2.50
2023-05-23T22:08:52.354Z,2.13
2023-05-23T22:12:54.119Z,2.33
2023-05-23T22:16:56.369Z,2.47
2023-05-23T22:20:58.197Z,2.63
2023-05-23T22:25:00.006Z,2.45
2023-05-23T22:29:02.588Z,2.60
2023-05-23T22:33:13.320Z,2.33
2023-05-23T22:37:16.093Z,2.35
2023-05-23T22:41:18.542Z,2.28
2023-05-23T22:45:20.716Z,2.40
2023-05-23T22:49:22.509Z,3.22
2023-05-23T22:53:24.360Z,2.55
2023-05-23T22:57:26.388Z,2.72
2023-05-23T23:01:28.358Z,2.50
2023-05-23T23:05:30.130Z,2.53
2023-05-23T23:09:31.876Z,2.33
2023-05-23T23:13:35.336Z,2.50
2023-05-23T23:17:39.041Z,2.00
2023-05-23T23:21:40.818Z,2.53
2023-05-23T23:25:42.827Z,2.30
2023-05-23T23:29:44.815Z,2.05
2023-05-23T23:33:46.622Z,2.95
2023-05-23T23:37:48.403Z,2.25
2023-05-23T23:41:50.591Z,2.25
2023-05-23T23:45:52.519Z,2.30
2023-05-23T23:49:54.364Z,2.30
2023-05-23T23:53:56.490Z,2.60
2023-05-23T23:57:58.291Z,2.08
